sensor_id;sensor_type;location;lat;lon;timestamp;temperature;humidity
72905;DHT22;61048;52.162;4.516;2023-08-20T00:01:22;23.70;58.90
72905;DHT22;61048;52.162;4.516;2023-08-20T00:03:50;23.70;59.00
72905;DHT22;61048;52.162;4.516;2023-08-20T00:06:20;23.70;59.10
72905;DHT22;61048;52.162;4.516;2023-08-20T00:08:48;23.70;59.10
72905;DHT22;61048;52.162;4.516;2023-08-20T00:11:15;23.70;58.90
72905;DHT22;61048;52.162;4.516;2023-08-20T00:13:42;23.70;59.10
72905;DHT22;61048;52.162;4.516;2023-08-20T00:16:10;23.70;59.00
72905;DHT22;61048;52.162;4.516;2023-08-20T00:18:37;23.70;59.00
72905;DHT22;61048;52.162;4.516;2023-08-20T00:21:05;23.70;59.00
72905;DHT22;61048;52.162;4.516;2023-08-20T00:23:34;23.70;59.00
72905;DHT22;61048;52.162;4.516;2023-08-20T00:26:02;23.70;59.10
72905;DHT22;61048;52.162;4.516;2023-08-20T00:28:29;23.70;59.00
72905;DHT22;61048;52.162;4.516;2023-08-20T00:30:56;23.70;59.20
72905;DHT22;61048;52.162;4.516;2023-08-20T00:33:23;23.70;59.10
72905;DHT22;61048;52.162;4.516;2023-08-20T00:35:50;23.70;59.20
72905;DHT22;61048;52.162;4.516;2023-08-20T00:38:17;23.70;59.20
72905;DHT22;61048;52.162;4.516;2023-08-20T00:40:45;23.70;59.30
72905;DHT22;61048;52.162;4.516;2023-08-20T00:43:12;23.70;59.30
72905;DHT22;61048;52.162;4.516;2023-08-20T00:45:40;23.70;59.30
72905;DHT22;61048;52.162;4.516;2023-08-20T00:48:09;23.60;59.30
72905;DHT22;61048;52.162;4.516;2023-08-20T00:50:36;23.60;59.40
72905;DHT22;61048;52.162;4.516;2023-08-20T00:53:04;23.70;59.30
72905;DHT22;61048;52.162;4.516;2023-08-20T00:55:31;23.60;59.50
72905;DHT22;61048;52.162;4.516;2023-08-20T00:57:59;23.60;59.50
72905;DHT22;61048;52.162;4.516;2023-08-20T01:00:26;23.60;59.50
72905;DHT22;61048;52.162;4.516;2023-08-20T01:02:53;23.60;59.50
72905;DHT22;61048;52.162;4.516;2023-08-20T01:05:20;23.70;59.60
72905;DHT22;61048;52.162;4.516;2023-08-20T01:07:58;23.60;59.60
72905;DHT22;61048;52.162;4.516;2023-08-20T01:10:33;23.60;59.50
72905;DHT22;61048;52.162;4.516;2023-08-20T01:13:02;23.60;59.60
72905;DHT22;61048;52.162;4.516;2023-08-20T01:15:29;23.60;59.60
72905;DHT22;61048;52.162;4.516;2023-08-20T01:17:56;23.60;59.70
72905;DHT22;61048;52.162;4.516;2023-08-20T01:20:27;23.60;59.60
72905;DHT22;61048;52.162;4.516;2023-08-20T01:23:30;23.60;59.70
72905;DHT22;61048;52.162;4.516;2023-08-20T01:26:21;23.60;59.60
72905;DHT22;61048;52.162;4.516;2023-08-20T01:28:51;23.60;59.70
72905;DHT22;61048;52.162;4.516;2023-08-20T01:31:18;23.60;59.80
72905;DHT22;61048;52.162;4.516;2023-08-20T01:33:47;23.60;59.70
72905;DHT22;61048;52.162;4.516;2023-08-20T01:36:14;23.60;59.80
72905;DHT22;61048;52.162;4.516;2023-08-20T01:38:41;23.60;59.60
72905;DHT22;61048;52.162;4.516;2023-08-20T01:41:08;23.60;59.70
72905;DHT22;61048;52.162;4.516;2023-08-20T01:43:35;23.60;59.80
72905;DHT22;61048;52.162;4.516;2023-08-20T01:46:03;23.60;59.80
72905;DHT22;61048;52.162;4.516;2023-08-20T01:48:30;23.50;59.80
72905;DHT22;61048;52.162;4.516;2023-08-20T01:50:57;23.60;59.90
72905;DHT22;61048;52.162;4.516;2023-08-20T01:53:24;23.60;59.90
72905;DHT22;61048;52.162;4.516;2023-08-20T01:55:51;23.50;59.90
72905;DHT22;61048;52.162;4.516;2023-08-20T01:58:18;23.50;60.00
72905;DHT22;61048;52.162;4.516;2023-08-20T02:00:45;23.50;59.80
72905;DHT22;61048;52.162;4.516;2023-08-20T02:03:14;23.50;60.00
72905;DHT22;61048;52.162;4.516;2023-08-20T02:05:41;23.50;60.00
72905;DHT22;61048;52.162;4.516;2023-08-20T02:08:08;23.50;59.90
72905;DHT22;61048;52.162;4.516;2023-08-20T02:10:35;23.50;60.00
72905;DHT22;61048;52.162;4.516;2023-08-20T02:13:02;23.50;60.00
72905;DHT22;61048;52.162;4.516;2023-08-20T02:15:30;23.50;60.00
72905;DHT22;61048;52.162;4.516;2023-08-20T02:17:57;23.50;60.00
72905;DHT22;61048;52.162;4.516;2023-08-20T02:20:28;23.50;60.20
72905;DHT22;61048;52.162;4.516;2023-08-20T02:22:55;23.50;60.10
72905;DHT22;61048;52.162;4.516;2023-08-20T02:25:23;23.50;60.20
72905;DHT22;61048;52.162;4.516;2023-08-20T02:27:50;23.50;60.20
72905;DHT22;61048;52.162;4.516;2023-08-20T02:30:17;23.50;60.10
72905;DHT22;61048;52.162;4.516;2023-08-20T02:32:44;23.50;60.20
72905;DHT22;61048;52.162;4.516;2023-08-20T02:35:11;23.50;60.20
72905;DHT22;61048;52.162;4.516;2023-08-20T02:37:40;23.50;60.20
72905;DHT22;61048;52.162;4.516;2023-08-20T02:40:08;23.40;60.20
72905;DHT22;61048;52.162;4.516;2023-08-20T02:42:35;23.50;60.20
72905;DHT22;61048;52.162;4.516;2023-08-20T02:45:03;23.40;60.30
72905;DHT22;61048;52.162;4.516;2023-08-20T02:47:30;23.40;60.30
72905;DHT22;61048;52.162;4.516;2023-08-20T02:49:57;23.40;60.30
72905;DHT22;61048;52.162;4.516;2023-08-20T02:52:24;23.40;60.40
72905;DHT22;61048;52.162;4.516;2023-08-20T02:54:52;23.40;60.30
72905;DHT22;61048;52.162;4.516;2023-08-20T02:57:19;23.40;60.30
72905;DHT22;61048;52.162;4.516;2023-08-20T02:59:47;23.40;60.30
72905;DHT22;61048;52.162;4.516;2023-08-20T03:02:13;23.40;60.40
72905;DHT22;61048;52.162;4.516;2023-08-20T03:04:40;23.40;60.40
72905;DHT22;61048;52.162;4.516;2023-08-20T03:07:07;23.40;60.40
72905;DHT22;61048;52.162;4.516;2023-08-20T03:09:34;23.40;60.40
72905;DHT22;61048;52.162;4.516;2023-08-20T03:12:03;23.40;60.50
72905;DHT22;61048;52.162;4.516;2023-08-20T03:14:30;23.40;60.40
72905;DHT22;61048;52.162;4.516;2023-08-20T03:16:57;23.40;60.40
72905;DHT22;61048;52.162;4.516;2023-08-20T03:19:24;23.40;60.50
72905;DHT22;61048;52.162;4.516;2023-08-20T03:21:51;23.40;60.50
72905;DHT22;61048;52.162;4.516;2023-08-20T03:24:18;23.40;60.50
72905;DHT22;61048;52.162;4.516;2023-08-20T03:26:44;23.30;60.60
72905;DHT22;61048;52.162;4.516;2023-08-20T03:29:14;23.30;60.60
72905;DHT22;61048;52.162;4.516;2023-08-20T03:31:41;23.30;60.50
72905;DHT22;61048;52.162;4.516;2023-08-20T03:34:08;23.30;60.70
72905;DHT22;61048;52.162;4.516;2023-08-20T03:36:36;23.30;60.60
72905;DHT22;61048;52.162;4.516;2023-08-20T03:39:03;23.30;60.60
72905;DHT22;61048;52.162;4.516;2023-08-20T03:41:30;23.30;60.70
72905;DHT22;61048;52.162;4.516;2023-08-20T03:43:58;23.30;60.70
72905;DHT22;61048;52.162;4.516;2023-08-20T03:46:26;23.30;60.50
72905;DHT22;61048;52.162;4.516;2023-08-20T03:48:53;23.30;60.90
72905;DHT22;61048;52.162;4.516;2023-08-20T03:51:20;23.30;60.80
72905;DHT22;61048;52.162;4.516;2023-08-20T03:53:46;23.30;60.80
72905;DHT22;61048;52.162;4.516;2023-08-20T03:56:13;23.30;60.80
72905;DHT22;61048;52.162;4.516;2023-08-20T03:58:40;23.30;60.80
72905;DHT22;61048;52.162;4.516;2023-08-20T04:01:07;23.30;60.80
72905;DHT22;61048;52.162;4.516;2023-08-20T04:03:36;23.30;60.80
72905;DHT22;61048;52.162;4.516;2023-08-20T04:06:02;23.20;60.80
72905;DHT22;61048;52.162;4.516;2023-08-20T04:08:29;23.30;60.90
72905;DHT22;61048;52.162;4.516;2023-08-20T04:10:56;23.20;60.80
72905;DHT22;61048;52.162;4.516;2023-08-20T04:13:23;23.20;61.00
72905;DHT22;61048;52.162;4.516;2023-08-20T04:15:51;23.20;61.00
72905;DHT22;61048;52.162;4.516;2023-08-20T04:18:18;23.20;61.00
72905;DHT22;61048;52.162;4.516;2023-08-20T04:20:46;23.20;60.90
72905;DHT22;61048;52.162;4.516;2023-08-20T04:23:13;23.20;61.00
72905;DHT22;61048;52.162;4.516;2023-08-20T04:25:40;23.20;60.90
72905;DHT22;61048;52.162;4.516;2023-08-20T04:28:07;23.20;61.10
72905;DHT22;61048;52.162;4.516;2023-08-20T04:30:34;23.20;61.00
72905;DHT22;61048;52.162;4.516;2023-08-20T04:33:02;23.20;61.00
72905;DHT22;61048;52.162;4.516;2023-08-20T04:35:29;23.20;61.10
72905;DHT22;61048;52.162;4.516;2023-08-20T04:37:57;23.20;61.10
72905;DHT22;61048;52.162;4.516;2023-08-20T04:40:24;23.20;61.00
72905;DHT22;61048;52.162;4.516;2023-08-20T04:42:51;23.20;61.00
72905;DHT22;61048;52.162;4.516;2023-08-20T04:45:18;23.20;61.10
72905;DHT22;61048;52.162;4.516;2023-08-20T04:47:45;23.20;61.20
72905;DHT22;61048;52.162;4.516;2023-08-20T04:50:12;23.20;61.20
72905;DHT22;61048;52.162;4.516;2023-08-20T04:52:40;23.20;61.20
72905;DHT22;61048;52.162;4.516;2023-08-20T04:55:08;23.20;61.10
72905;DHT22;61048;52.162;4.516;2023-08-20T04:57:35;23.20;61.10
72905;DHT22;61048;52.162;4.516;2023-08-20T05:00:03;23.20;61.10
72905;DHT22;61048;52.162;4.516;2023-08-20T05:02:31;23.20;61.20
72905;DHT22;61048;52.162;4.516;2023-08-20T05:04:57;23.20;61.10
72905;DHT22;61048;52.162;4.516;2023-08-20T05:07:24;23.20;61.10
72905;DHT22;61048;52.162;4.516;2023-08-20T05:09:52;23.20;61.20
72905;DHT22;61048;52.162;4.516;2023-08-20T05:12:20;23.20;61.20
72905;DHT22;61048;52.162;4.516;2023-08-20T05:14:47;23.20;61.30
72905;DHT22;61048;52.162;4.516;2023-08-20T05:17:14;23.20;61.20
72905;DHT22;61048;52.162;4.516;2023-08-20T05:19:41;23.20;61.40
72905;DHT22;61048;52.162;4.516;2023-08-20T05:22:08;23.30;61.30
72905;DHT22;61048;52.162;4.516;2023-08-20T05:24:36;23.30;61.40
72905;DHT22;61048;52.162;4.516;2023-08-20T05:27:07;23.30;61.30
72905;DHT22;61048;52.162;4.516;2023-08-20T05:29:37;23.40;61.30
72905;DHT22;61048;52.162;4.516;2023-08-20T05:32:04;23.40;61.30
72905;DHT22;61048;52.162;4.516;2023-08-20T05:34:31;23.40;61.30
72905;DHT22;61048;52.162;4.516;2023-08-20T05:36:58;23.50;61.40
72905;DHT22;61048;52.162;4.516;2023-08-20T05:39:25;23.50;61.40
72905;DHT22;61048;52.162;4.516;2023-08-20T05:41:52;23.50;61.50
72905;DHT22;61048;52.162;4.516;2023-08-20T05:44:19;23.50;61.30
72905;DHT22;61048;52.162;4.516;2023-08-20T05:46:47;23.60;61.40
72905;DHT22;61048;52.162;4.516;2023-08-20T05:49:15;23.60;61.30
72905;DHT22;61048;52.162;4.516;2023-08-20T05:51:42;23.60;61.30
72905;DHT22;61048;52.162;4.516;2023-08-20T05:54:09;23.70;61.30
72905;DHT22;61048;52.162;4.516;2023-08-20T05:56:36;23.70;61.30
72905;DHT22;61048;52.162;4.516;2023-08-20T05:59:03;23.80;61.20
72905;DHT22;61048;52.162;4.516;2023-08-20T06:01:30;23.80;61.10
72905;DHT22;61048;52.162;4.516;2023-08-20T06:03:58;23.80;61.10
72905;DHT22;61048;52.162;4.516;2023-08-20T06:06:27;23.90;61.10
72905;DHT22;61048;52.162;4.516;2023-08-20T06:08:54;23.90;61.10
72905;DHT22;61048;52.162;4.516;2023-08-20T06:11:21;23.90;60.90
72905;DHT22;61048;52.162;4.516;2023-08-20T06:13:48;24.00;61.00
72905;DHT22;61048;52.162;4.516;2023-08-20T06:16:14;24.00;61.00
72905;DHT22;61048;52.162;4.516;2023-08-20T06:18:41;24.10;60.90
72905;DHT22;61048;52.162;4.516;2023-08-20T06:21:10;24.10;60.80
72905;DHT22;61048;52.162;4.516;2023-08-20T06:23:37;24.10;60.70
72905;DHT22;61048;52.162;4.516;2023-08-20T06:26:03;24.20;60.80
72905;DHT22;61048;52.162;4.516;2023-08-20T06:28:30;24.20;60.70
72905;DHT22;61048;52.162;4.516;2023-08-20T06:30:57;24.20;60.70
72905;DHT22;61048;52.162;4.516;2023-08-20T06:33:24;24.30;60.70
72905;DHT22;61048;52.162;4.516;2023-08-20T06:35:51;24.30;60.70
72905;DHT22;61048;52.162;4.516;2023-08-20T06:38:19;24.40;60.70
72905;DHT22;61048;52.162;4.516;2023-08-20T06:40:46;24.40;60.60
72905;DHT22;61048;52.162;4.516;2023-08-20T06:43:13;24.40;60.60
72905;DHT22;61048;52.162;4.516;2023-08-20T06:45:40;24.50;60.50
72905;DHT22;61048;52.162;4.516;2023-08-20T06:48:07;24.50;60.50
72905;DHT22;61048;52.162;4.516;2023-08-20T06:50:34;24.50;60.50
72905;DHT22;61048;52.162;4.516;2023-08-20T06:53:01;24.50;60.50
72905;DHT22;61048;52.162;4.516;2023-08-20T06:55:29;24.60;60.40
72905;DHT22;61048;52.162;4.516;2023-08-20T06:57:56;24.60;60.30
72905;DHT22;61048;52.162;4.516;2023-08-20T07:00:23;24.60;60.20
72905;DHT22;61048;52.162;4.516;2023-08-20T07:02:50;24.60;60.20
72905;DHT22;61048;52.162;4.516;2023-08-20T07:05:17;24.70;60.10
72905;DHT22;61048;52.162;4.516;2023-08-20T07:07:45;24.70;59.90
72905;DHT22;61048;52.162;4.516;2023-08-20T07:10:12;24.60;59.90
72905;DHT22;61048;52.162;4.516;2023-08-20T07:12:40;24.50;59.80
72905;DHT22;61048;52.162;4.516;2023-08-20T07:15:08;24.50;59.80
72905;DHT22;61048;52.162;4.516;2023-08-20T07:17:35;24.50;59.80
72905;DHT22;61048;52.162;4.516;2023-08-20T07:20:02;24.50;59.80
72905;DHT22;61048;52.162;4.516;2023-08-20T07:22:29;24.50;59.70
72905;DHT22;61048;52.162;4.516;2023-08-20T07:24:56;24.50;59.60
72905;DHT22;61048;52.162;4.516;2023-08-20T07:27:23;24.50;59.60
72905;DHT22;61048;52.162;4.516;2023-08-20T07:32:19;24.90;59.20
72905;DHT22;61048;52.162;4.516;2023-08-20T07:34:46;24.60;59.50
72905;DHT22;61048;52.162;4.516;2023-08-20T07:37:12;24.50;59.50
72905;DHT22;61048;52.162;4.516;2023-08-20T07:39:39;24.50;59.50
72905;DHT22;61048;52.162;4.516;2023-08-20T07:42:06;24.50;59.60
72905;DHT22;61048;52.162;4.516;2023-08-20T07:44:34;24.50;59.60
72905;DHT22;61048;52.162;4.516;2023-08-20T07:47:02;24.50;59.50
72905;DHT22;61048;52.162;4.516;2023-08-20T07:49:29;24.50;59.40
72905;DHT22;61048;52.162;4.516;2023-08-20T07:51:56;24.50;59.20
72905;DHT22;61048;52.162;4.516;2023-08-20T07:54:23;24.50;59.30
72905;DHT22;61048;52.162;4.516;2023-08-20T07:56:50;24.50;59.20
72905;DHT22;61048;52.162;4.516;2023-08-20T07:59:17;24.40;59.20
72905;DHT22;61048;52.162;4.516;2023-08-20T08:01:43;24.40;59.30
72905;DHT22;61048;52.162;4.516;2023-08-20T08:04:12;24.40;59.40
72905;DHT22;61048;52.162;4.516;2023-08-20T08:06:39;24.40;59.40
72905;DHT22;61048;52.162;4.516;2023-08-20T08:09:18;24.40;59.30
72905;DHT22;61048;52.162;4.516;2023-08-20T08:11:46;24.50;59.60
72905;DHT22;61048;52.162;4.516;2023-08-20T08:14:13;24.50;59.60
72905;DHT22;61048;52.162;4.516;2023-08-20T08:16:40;24.50;59.30
72905;DHT22;61048;52.162;4.516;2023-08-20T08:19:07;24.50;59.20
72905;DHT22;61048;52.162;4.516;2023-08-20T08:21:35;24.50;59.80
72905;DHT22;61048;52.162;4.516;2023-08-20T08:24:03;24.50;59.70
72905;DHT22;61048;52.162;4.516;2023-08-20T08:26:30;24.50;59.40
72905;DHT22;61048;52.162;4.516;2023-08-20T08:28:58;24.60;59.10
72905;DHT22;61048;52.162;4.516;2023-08-20T08:31:25;24.50;59.00
72905;DHT22;61048;52.162;4.516;2023-08-20T08:33:52;24.50;58.80
72905;DHT22;61048;52.162;4.516;2023-08-20T08:36:19;24.50;58.80
72905;DHT22;61048;52.162;4.516;2023-08-20T08:38:47;24.50;59.00
72905;DHT22;61048;52.162;4.516;2023-08-20T08:41:15;24.60;58.90
72905;DHT22;61048;52.162;4.516;2023-08-20T08:43:42;24.60;58.80
72905;DHT22;61048;52.162;4.516;2023-08-20T08:46:12;24.60;58.70
72905;DHT22;61048;52.162;4.516;2023-08-20T08:48:40;24.60;58.90
72905;DHT22;61048;52.162;4.516;2023-08-20T08:51:08;24.60;58.80
72905;DHT22;61048;52.162;4.516;2023-08-20T08:53:35;24.60;58.90
72905;DHT22;61048;52.162;4.516;2023-08-20T08:56:04;24.60;58.70
72905;DHT22;61048;52.162;4.516;2023-08-20T08:58:32;24.60;58.40
72905;DHT22;61048;52.162;4.516;2023-08-20T09:00:59;24.60;58.30
72905;DHT22;61048;52.162;4.516;2023-08-20T09:03:26;24.60;58.30
72905;DHT22;61048;52.162;4.516;2023-08-20T09:05:55;24.60;58.20
72905;DHT22;61048;52.162;4.516;2023-08-20T09:08:26;24.60;58.20
72905;DHT22;61048;52.162;4.516;2023-08-20T09:10:55;24.70;58.20
72905;DHT22;61048;52.162;4.516;2023-08-20T09:13:24;24.70;57.50
72905;DHT22;61048;52.162;4.516;2023-08-20T09:15:52;24.60;57.40
72905;DHT22;61048;52.162;4.516;2023-08-20T09:18:19;24.60;57.00
72905;DHT22;61048;52.162;4.516;2023-08-20T09:20:47;24.60;57.20
72905;DHT22;61048;52.162;4.516;2023-08-20T09:23:15;24.60;57.40
72905;DHT22;61048;52.162;4.516;2023-08-20T09:25:43;24.60;57.40
72905;DHT22;61048;52.162;4.516;2023-08-20T09:28:10;24.70;57.70
72905;DHT22;61048;52.162;4.516;2023-08-20T09:30:39;24.70;57.10
72905;DHT22;61048;52.162;4.516;2023-08-20T09:33:09;24.70;57.10
72905;DHT22;61048;52.162;4.516;2023-08-20T09:35:36;24.70;57.00
72905;DHT22;61048;52.162;4.516;2023-08-20T09:38:04;24.70;56.30
72905;DHT22;61048;52.162;4.516;2023-08-20T09:40:31;24.60;56.20
72905;DHT22;61048;52.162;4.516;2023-08-20T09:43:00;24.70;56.60
72905;DHT22;61048;52.162;4.516;2023-08-20T09:45:28;24.70;56.60
72905;DHT22;61048;52.162;4.516;2023-08-20T09:47:58;24.70;56.40
72905;DHT22;61048;52.162;4.516;2023-08-20T09:50:26;24.70;56.20
72905;DHT22;61048;52.162;4.516;2023-08-20T09:52:57;24.70;56.10
72905;DHT22;61048;52.162;4.516;2023-08-20T09:55:29;24.70;56.40
72905;DHT22;61048;52.162;4.516;2023-08-20T09:58:01;24.70;56.30
72905;DHT22;61048;52.162;4.516;2023-08-20T10:00:28;24.70;56.40
72905;DHT22;61048;52.162;4.516;2023-08-20T10:02:57;24.70;56.30
72905;DHT22;61048;52.162;4.516;2023-08-20T10:05:25;24.70;56.10
72905;DHT22;61048;52.162;4.516;2023-08-20T10:07:52;24.70;55.80
72905;DHT22;61048;52.162;4.516;2023-08-20T10:10:21;24.70;56.00
72905;DHT22;61048;52.162;4.516;2023-08-20T10:12:48;24.70;55.90
72905;DHT22;61048;52.162;4.516;2023-08-20T10:15:15;24.80;56.10
72905;DHT22;61048;52.162;4.516;2023-08-20T10:17:44;24.80;56.10
72905;DHT22;61048;52.162;4.516;2023-08-20T10:20:14;24.70;55.70
72905;DHT22;61048;52.162;4.516;2023-08-20T10:22:44;24.70;55.50
72905;DHT22;61048;52.162;4.516;2023-08-20T10:25:12;24.70;55.10
72905;DHT22;61048;52.162;4.516;2023-08-20T10:27:40;24.70;55.00
72905;DHT22;61048;52.162;4.516;2023-08-20T10:30:09;24.70;54.90
72905;DHT22;61048;52.162;4.516;2023-08-20T10:32:46;24.70;55.30
72905;DHT22;61048;52.162;4.516;2023-08-20T10:35:15;24.70;55.20
72905;DHT22;61048;52.162;4.516;2023-08-20T10:38:00;24.80;55.10
72905;DHT22;61048;52.162;4.516;2023-08-20T10:40:47;24.80;55.30
72905;DHT22;61048;52.162;4.516;2023-08-20T10:43:27;24.80;55.10
72905;DHT22;61048;52.162;4.516;2023-08-20T10:46:08;24.80;55.50
72905;DHT22;61048;52.162;4.516;2023-08-20T10:48:37;24.80;55.40
72905;DHT22;61048;52.162;4.516;2023-08-20T10:51:11;24.80;55.40
72905;DHT22;61048;52.162;4.516;2023-08-20T10:53:39;24.80;55.40
72905;DHT22;61048;52.162;4.516;2023-08-20T10:56:14;24.90;55.40
72905;DHT22;61048;52.162;4.516;2023-08-20T10:58:42;24.90;55.50
72905;DHT22;61048;52.162;4.516;2023-08-20T11:01:21;24.90;55.40
72905;DHT22;61048;52.162;4.516;2023-08-20T11:03:49;24.90;55.40
72905;DHT22;61048;52.162;4.516;2023-08-20T11:06:18;24.90;55.30
72905;DHT22;61048;52.162;4.516;2023-08-20T11:08:45;24.90;55.20
72905;DHT22;61048;52.162;4.516;2023-08-20T11:11:13;24.90;55.20
72905;DHT22;61048;52.162;4.516;2023-08-20T11:13:40;25.00;55.30
72905;DHT22;61048;52.162;4.516;2023-08-20T11:16:08;25.00;55.20
72905;DHT22;61048;52.162;4.516;2023-08-20T11:18:36;25.00;55.10
72905;DHT22;61048;52.162;4.516;2023-08-20T11:21:03;25.00;54.90
72905;DHT22;61048;52.162;4.516;2023-08-20T11:23:32;25.00;55.10
72905;DHT22;61048;52.162;4.516;2023-08-20T11:25:59;25.00;55.00
72905;DHT22;61048;52.162;4.516;2023-08-20T11:28:27;25.00;55.10
72905;DHT22;61048;52.162;4.516;2023-08-20T11:30:54;25.10;54.90
72905;DHT22;61048;52.162;4.516;2023-08-20T11:33:23;25.10;55.10
72905;DHT22;61048;52.162;4.516;2023-08-20T11:35:52;25.10;54.80
72905;DHT22;61048;52.162;4.516;2023-08-20T11:38:22;25.20;54.60
72905;DHT22;61048;52.162;4.516;2023-08-20T11:40:51;25.20;54.80
72905;DHT22;61048;52.162;4.516;2023-08-20T11:43:18;25.20;54.60
72905;DHT22;61048;52.162;4.516;2023-08-20T11:45:49;25.30;54.70
72905;DHT22;61048;52.162;4.516;2023-08-20T11:48:16;25.30;54.80
72905;DHT22;61048;52.162;4.516;2023-08-20T11:50:44;25.30;54.70
72905;DHT22;61048;52.162;4.516;2023-08-20T11:53:11;25.40;54.50
72905;DHT22;61048;52.162;4.516;2023-08-20T11:55:39;25.40;54.70
72905;DHT22;61048;52.162;4.516;2023-08-20T11:58:11;25.40;54.90
72905;DHT22;61048;52.162;4.516;2023-08-20T12:00:39;25.50;54.80
72905;DHT22;61048;52.162;4.516;2023-08-20T12:03:07;25.50;55.30
72905;DHT22;61048;52.162;4.516;2023-08-20T12:05:34;25.50;55.50
72905;DHT22;61048;52.162;4.516;2023-08-20T12:08:02;25.60;55.60
72905;DHT22;61048;52.162;4.516;2023-08-20T12:10:32;25.60;55.80
72905;DHT22;61048;52.162;4.516;2023-08-20T12:12:59;25.60;56.50
72905;DHT22;61048;52.162;4.516;2023-08-20T12:15:27;25.60;56.50
72905;DHT22;61048;52.162;4.516;2023-08-20T12:17:59;25.60;56.20
72905;DHT22;61048;52.162;4.516;2023-08-20T12:20:28;25.60;56.30
72905;DHT22;61048;52.162;4.516;2023-08-20T12:22:58;25.60;56.50
72905;DHT22;61048;52.162;4.516;2023-08-20T12:25:25;25.60;56.30
72905;DHT22;61048;52.162;4.516;2023-08-20T12:27:52;25.60;56.10
72905;DHT22;61048;52.162;4.516;2023-08-20T12:30:19;25.60;56.10
72905;DHT22;61048;52.162;4.516;2023-08-20T12:32:47;25.70;56.00
72905;DHT22;61048;52.162;4.516;2023-08-20T12:35:14;25.70;55.80
72905;DHT22;61048;52.162;4.516;2023-08-20T12:37:41;25.70;55.40
72905;DHT22;61048;52.162;4.516;2023-08-20T12:40:09;25.60;55.10
72905;DHT22;61048;52.162;4.516;2023-08-20T12:42:38;25.70;55.10
72905;DHT22;61048;52.162;4.516;2023-08-20T12:45:06;25.70;55.00
72905;DHT22;61048;52.162;4.516;2023-08-20T12:47:33;25.70;55.10
72905;DHT22;61048;52.162;4.516;2023-08-20T12:50:02;25.70;55.10
72905;DHT22;61048;52.162;4.516;2023-08-20T12:52:30;25.70;54.90
72905;DHT22;61048;52.162;4.516;2023-08-20T12:54:57;25.70;54.70
72905;DHT22;61048;52.162;4.516;2023-08-20T12:57:24;25.80;54.20
72905;DHT22;61048;52.162;4.516;2023-08-20T12:59:51;25.80;54.20
72905;DHT22;61048;52.162;4.516;2023-08-20T13:02:18;25.80;54.30
72905;DHT22;61048;52.162;4.516;2023-08-20T13:04:46;25.80;54.30
72905;DHT22;61048;52.162;4.516;2023-08-20T13:07:15;25.80;54.10
72905;DHT22;61048;52.162;4.516;2023-08-20T13:09:42;25.80;54.00
72905;DHT22;61048;52.162;4.516;2023-08-20T13:12:10;25.90;53.70
72905;DHT22;61048;52.162;4.516;2023-08-20T13:14:39;25.90;53.80
72905;DHT22;61048;52.162;4.516;2023-08-20T13:17:08;25.90;53.90
72905;DHT22;61048;52.162;4.516;2023-08-20T13:19:35;25.90;54.00
72905;DHT22;61048;52.162;4.516;2023-08-20T13:22:02;25.90;53.80
72905;DHT22;61048;52.162;4.516;2023-08-20T13:24:31;25.90;54.00
72905;DHT22;61048;52.162;4.516;2023-08-20T13:26:58;26.00;54.00
72905;DHT22;61048;52.162;4.516;2023-08-20T13:29:24;26.00;53.90
72905;DHT22;61048;52.162;4.516;2023-08-20T13:31:51;26.00;53.70
72905;DHT22;61048;52.162;4.516;2023-08-20T13:34:18;26.00;54.00
72905;DHT22;61048;52.162;4.516;2023-08-20T13:36:45;26.00;53.30
72905;DHT22;61048;52.162;4.516;2023-08-20T13:39:13;26.00;53.30
72905;DHT22;61048;52.162;4.516;2023-08-20T13:41:41;26.00;53.00
72905;DHT22;61048;52.162;4.516;2023-08-20T13:44:08;26.00;53.00
72905;DHT22;61048;52.162;4.516;2023-08-20T13:46:35;26.00;52.70
72905;DHT22;61048;52.162;4.516;2023-08-20T13:49:03;26.00;52.70
72905;DHT22;61048;52.162;4.516;2023-08-20T13:51:30;26.00;52.60
72905;DHT22;61048;52.162;4.516;2023-08-20T13:53:57;26.00;52.70
72905;DHT22;61048;52.162;4.516;2023-08-20T13:56:24;26.00;52.80
72905;DHT22;61048;52.162;4.516;2023-08-20T13:58:53;26.00;52.80
72905;DHT22;61048;52.162;4.516;2023-08-20T14:01:20;26.10;52.70
72905;DHT22;61048;52.162;4.516;2023-08-20T14:03:47;26.10;52.70
72905;DHT22;61048;52.162;4.516;2023-08-20T14:06:15;26.10;52.60
72905;DHT22;61048;52.162;4.516;2023-08-20T14:08:42;26.10;52.30
72905;DHT22;61048;52.162;4.516;2023-08-20T14:11:09;26.10;52.50
72905;DHT22;61048;52.162;4.516;2023-08-20T14:13:36;26.10;52.60
72905;DHT22;61048;52.162;4.516;2023-08-20T14:16:04;26.10;52.40
72905;DHT22;61048;52.162;4.516;2023-08-20T14:18:31;26.10;52.70
72905;DHT22;61048;52.162;4.516;2023-08-20T14:20:58;26.10;52.60
72905;DHT22;61048;52.162;4.516;2023-08-20T14:23:25;26.20;52.20
72905;DHT22;61048;52.162;4.516;2023-08-20T14:25:52;26.10;52.00
72905;DHT22;61048;52.162;4.516;2023-08-20T14:28:20;26.10;52.40
72905;DHT22;61048;52.162;4.516;2023-08-20T14:30:48;26.20;52.30
72905;DHT22;61048;52.162;4.516;2023-08-20T14:33:17;26.20;51.90
72905;DHT22;61048;52.162;4.516;2023-08-20T14:35:44;26.20;51.70
72905;DHT22;61048;52.162;4.516;2023-08-20T14:38:11;26.20;51.60
72905;DHT22;61048;52.162;4.516;2023-08-20T14:40:39;26.20;51.50
72905;DHT22;61048;52.162;4.516;2023-08-20T14:43:06;26.20;51.60
72905;DHT22;61048;52.162;4.516;2023-08-20T14:45:33;26.20;51.40
72905;DHT22;61048;52.162;4.516;2023-08-20T14:48:00;26.20;51.30
72905;DHT22;61048;52.162;4.516;2023-08-20T14:50:29;26.20;51.40
72905;DHT22;61048;52.162;4.516;2023-08-20T14:52:56;26.20;52.00
72905;DHT22;61048;52.162;4.516;2023-08-20T14:55:23;26.20;51.80
72905;DHT22;61048;52.162;4.516;2023-08-20T14:57:50;26.30;51.90
72905;DHT22;61048;52.162;4.516;2023-08-20T15:00:17;26.30;51.80
72905;DHT22;61048;52.162;4.516;2023-08-20T15:02:48;26.30;51.80
72905;DHT22;61048;52.162;4.516;2023-08-20T15:05:15;26.30;51.50
72905;DHT22;61048;52.162;4.516;2023-08-20T15:07:43;26.30;51.30
72905;DHT22;61048;52.162;4.516;2023-08-20T15:10:10;26.30;51.40
72905;DHT22;61048;52.162;4.516;2023-08-20T15:12:37;26.30;51.20
72905;DHT22;61048;52.162;4.516;2023-08-20T15:15:05;26.30;51.20
72905;DHT22;61048;52.162;4.516;2023-08-20T15:17:33;26.30;51.60
72905;DHT22;61048;52.162;4.516;2023-08-20T15:20:00;26.30;51.60
72905;DHT22;61048;52.162;4.516;2023-08-20T15:22:27;26.30;51.50
72905;DHT22;61048;52.162;4.516;2023-08-20T15:24:56;26.30;51.20
72905;DHT22;61048;52.162;4.516;2023-08-20T15:27:24;26.30;51.20
72905;DHT22;61048;52.162;4.516;2023-08-20T15:29:51;26.30;51.20
72905;DHT22;61048;52.162;4.516;2023-08-20T15:32:18;26.30;51.10
72905;DHT22;61048;52.162;4.516;2023-08-20T15:34:46;26.30;51.10
72905;DHT22;61048;52.162;4.516;2023-08-20T15:37:14;26.30;51.00